sensor_id;sensor_type;location;lat;lon;timestamp;pressure;altitude;pressure_sealevel;temperature;humidity
21504;BME280;10913;51.992;9.228;2023-07-02T00:01:07;99320.59;;;17.54;100.00
21504;BME280;10913;51.992;9.228;2023-07-02T00:03:33;99324.22;;;17.53;100.00
21504;BME280;10913;51.992;9.228;2023-07-02T00:05:58;99325.00;;;17.55;100.00
21504;BME280;10913;51.992;9.228;2023-07-02T00:08:24;99313.53;;;17.53;100.00
21504;BME280;10913;51.992;9.228;2023-07-02T00:10:49;99312.59;;;17.54;100.00
21504;BME280;10913;51.992;9.228;2023-07-02T00:13:15;99311.66;;;17.55;100.00
21504;BME280;10913;51.992;9.228;2023-07-02T00:15:40;99309.06;;;17.54;100.00
21504;BME280;10913;51.992;9.228;2023-07-02T00:18:06;99311.00;;;17.50;100.00
21504;BME280;10913;51.992;9.228;2023-07-02T00:20:32;99305.88;;;17.46;100.00
21504;BME280;10913;51.992;9.228;2023-07-02T00:23:05;99305.09;;;17.44;100.00
21504;BME280;10913;51.992;9.228;2023-07-02T00:25:34;99309.56;;;17.43;100.00
21504;BME280;10913;51.992;9.228;2023-07-02T00:27:59;99309.56;;;17.43;100.00
21504;BME280;10913;51.992;9.228;2023-07-02T00:30:24;99308.56;;;17.46;100.00
21504;BME280;10913;51.992;9.228;2023-07-02T00:32:50;99310.38;;;17.45;100.00
21504;BME280;10913;51.992;9.228;2023-07-02T00:35:15;99311.31;;;17.44;100.00
21504;BME280;10913;51.992;9.228;2023-07-02T00:37:40;99308.63;;;17.44;100.00
21504;BME280;10913;51.992;9.228;2023-07-02T00:40:06;99315.84;;;17.42;100.00
21504;BME280;10913;51.992;9.228;2023-07-02T00:42:32;99309.72;;;17.40;100.00
21504;BME280;10913;51.992;9.228;2023-07-02T00:44:57;99313.50;;;17.36;100.00
21504;BME280;10913;51.992;9.228;2023-07-02T00:47:27;99313.66;;;17.33;100.00
21504;BME280;10913;51.992;9.228;2023-07-02T00:49:53;99320.88;;;17.31;100.00
21504;BME280;10913;51.992;9.228;2023-07-02T00:52:18;99320.88;;;17.31;100.00
21504;BME280;10913;51.992;9.228;2023-07-02T00:54:45;99316.47;;;17.30;100.00
21504;BME280;10913;51.992;9.228;2023-07-02T00:57:10;99313.81;;;17.30;100.00
21504;BME280;10913;51.992;9.228;2023-07-02T00:59:36;99310.34;;;17.28;100.00
21504;BME280;10913;51.992;9.228;2023-07-02T01:02:06;99306.09;;;17.24;100.00
21504;BME280;10913;51.992;9.228;2023-07-02T01:04:32;99290.22;;;17.21;100.00
21504;BME280;10913;51.992;9.228;2023-07-02T01:06:57;99296.69;;;17.17;100.00
21504;BME280;10913;51.992;9.228;2023-07-02T01:09:23;99296.91;;;17.12;100.00
21504;BME280;10913;51.992;9.228;2023-07-02T01:12:03;99300.72;;;17.07;100.00
21504;BME280;10913;51.992;9.228;2023-07-02T01:14:36;99305.44;;;17.02;100.00
21504;BME280;10913;51.992;9.228;2023-07-02T01:17:03;99293.09;;;16.99;100.00
21504;BME280;10913;51.992;9.228;2023-07-02T01:22:24;99293.78;;;16.85;100.00
21504;BME280;10913;51.992;9.228;2023-07-02T01:24:50;99295.72;;;16.82;100.00
21504;BME280;10913;51.992;9.228;2023-07-02T01:27:16;99292.25;;;16.80;100.00
21504;BME280;10913;51.992;9.228;2023-07-02T01:29:42;99284.50;;;16.75;100.00
21504;BME280;10913;51.992;9.228;2023-07-02T01:32:10;99289.03;;;16.73;100.00
21504;BME280;10913;51.992;9.228;2023-07-02T01:34:35;99295.38;;;16.71;100.00
21504;BME280;10913;51.992;9.228;2023-07-02T01:37:02;99295.47;;;16.69;100.00
21504;BME280;10913;51.992;9.228;2023-07-02T01:39:28;99296.41;;;16.68;100.00
21504;BME280;10913;51.992;9.228;2023-07-02T01:42:14;99296.66;;;16.62;100.00
21504;BME280;10913;51.992;9.228;2023-07-02T01:44:44;99299.63;;;16.56;100.00
21504;BME280;10913;51.992;9.228;2023-07-02T01:47:09;99300.63;;;16.53;100.00
21504;BME280;10913;51.992;9.228;2023-07-02T01:49:35;99303.44;;;16.50;100.00
21504;BME280;10913;51.992;9.228;2023-07-02T01:52:03;99305.38;;;16.47;100.00
21504;BME280;10913;51.992;9.228;2023-07-02T01:54:29;99299.16;;;16.46;100.00
21504;BME280;10913;51.992;9.228;2023-07-02T01:56:56;99312.56;;;16.45;100.00
21504;BME280;10913;51.992;9.228;2023-07-02T01:59:21;99303.63;;;16.46;100.00
21504;BME280;10913;51.992;9.228;2023-07-02T02:01:47;99313.44;;;16.45;100.00
21504;BME280;10913;51.992;9.228;2023-07-02T02:04:13;99314.38;;;16.44;100.00
21504;BME280;10913;51.992;9.228;2023-07-02T02:06:39;99314.44;;;16.43;100.00
21504;BME280;10913;51.992;9.228;2023-07-02T02:09:05;99315.38;;;16.42;100.00
21504;BME280;10913;51.992;9.228;2023-07-02T02:11:32;99312.78;;;16.40;100.00
21504;BME280;10913;51.992;9.228;2023-07-02T02:13:58;99309.25;;;16.40;100.00
21504;BME280;10913;51.992;9.228;2023-07-02T02:16:24;99316.31;;;16.41;100.00
21504;BME280;10913;51.992;9.228;2023-07-02T02:18:49;99315.38;;;16.42;100.00
21504;BME280;10913;51.992;9.228;2023-07-02T02:21:17;99312.72;;;16.42;100.00
21504;BME280;10913;51.992;9.228;2023-07-02T02:23:43;99313.50;;;16.44;100.00
21504;BME280;10913;51.992;9.228;2023-07-02T02:26:08;99313.44;;;16.45;100.00
21504;BME280;10913;51.992;9.228;2023-07-02T02:28:33;99321.38;;;16.47;100.00
21504;BME280;10913;51.992;9.228;2023-07-02T02:30:59;99315.97;;;16.48;100.00
21504;BME280;10913;51.992;9.228;2023-07-02T02:33:24;99314.16;;;16.49;100.00
21504;BME280;10913;51.992;9.228;2023-07-02T02:35:49;99309.69;;;16.49;100.00
21504;BME280;10913;51.992;9.228;2023-07-02T02:38:15;99310.69;;;16.47;100.00
21504;BME280;10913;51.992;9.228;2023-07-02T02:40:40;99311.56;;;16.47;100.00
21504;BME280;10913;51.992;9.228;2023-07-02T02:43:05;99310.56;;;16.50;100.00
21504;BME280;10913;51.992;9.228;2023-07-02T02:45:31;99305.22;;;16.50;100.00
21504;BME280;10913;51.992;9.228;2023-07-02T02:47:56;99300.75;;;16.50;100.00
21504;BME280;10913;51.992;9.228;2023-07-02T02:50:21;99303.38;;;16.52;100.00
21504;BME280;10913;51.992;9.228;2023-07-02T02:52:47;99305.97;;;16.53;100.00
21504;BME280;10913;51.992;9.228;2023-07-02T02:55:12;99304.97;;;16.56;100.00
21504;BME280;10913;51.992;9.228;2023-07-02T02:57:37;99307.56;;;16.58;100.00
21504;BME280;10913;51.992;9.228;2023-07-02T03:00:03;99298.69;;;16.57;100.00
21504;BME280;10913;51.992;9.228;2023-07-02T03:02:30;99300.50;;;16.57;100.00
21504;BME280;10913;51.992;9.228;2023-07-02T03:04:55;99303.09;;;16.58;100.00
21504;BME280;10913;51.992;9.228;2023-07-02T03:07:22;99301.25;;;16.59;100.00
21504;BME280;10913;51.992;9.228;2023-07-02T03:09:47;99303.84;;;16.60;100.00
21504;BME280;10913;51.992;9.228;2023-07-02T03:12:13;99301.97;;;16.62;100.00
21504;BME280;10913;51.992;9.228;2023-07-02T03:14:38;99303.78;;;16.62;100.00
21504;BME280;10913;51.992;9.228;2023-07-02T03:17:04;99302.81;;;16.64;100.00
21504;BME280;10913;51.992;9.228;2023-07-02T03:19:29;99308.13;;;16.64;100.00
21504;BME280;10913;51.992;9.228;2023-07-02T03:21:54;99313.34;;;16.67;100.00
21504;BME280;10913;51.992;9.228;2023-07-02T03:24:21;99307.84;;;16.70;100.00
21504;BME280;10913;51.992;9.228;2023-07-02T03:26:46;99303.31;;;16.72;100.00
21504;BME280;10913;51.992;9.228;2023-07-02T03:29:11;99305.97;;;16.72;100.00
21504;BME280;10913;51.992;9.228;2023-07-02T03:31:37;99297.13;;;16.72;100.00
21504;BME280;10913;51.992;9.228;2023-07-02T03:34:06;99288.25;;;16.71;100.00
21504;BME280;10913;51.992;9.228;2023-07-02T03:36:31;99294.25;;;16.76;100.00
21504;BME280;10913;51.992;9.228;2023-07-02T03:38:57;99289.84;;;16.75;100.00
21504;BME280;10913;51.992;9.228;2023-07-02T03:41:22;99291.56;;;16.76;100.00
21504;BME280;10913;51.992;9.228;2023-07-02T03:43:48;99286.16;;;16.78;100.00
21504;BME280;10913;51.992;9.228;2023-07-02T03:46:13;99295.03;;;16.78;100.00
21504;BME280;10913;51.992;9.228;2023-07-02T03:48:39;99300.19;;;16.81;100.00
21504;BME280;10913;51.992;9.228;2023-07-02T03:51:04;99301.06;;;16.82;100.00
21504;BME280;10913;51.992;9.228;2023-07-02T03:53:30;99300.06;;;16.84;100.00
21504;BME280;10913;51.992;9.228;2023-07-02T03:55:55;99300.06;;;16.84;100.00
21504;BME280;10913;51.992;9.228;2023-07-02T03:58:20;99305.25;;;16.87;100.00
21504;BME280;10913;51.992;9.228;2023-07-02T04:00:46;99303.38;;;16.90;100.00
21504;BME280;10913;51.992;9.228;2023-07-02T04:03:15;99306.91;;;16.90;100.00
21504;BME280;10913;51.992;9.228;2023-07-02T04:05:41;99313.03;;;16.92;100.00
21504;BME280;10913;51.992;9.228;2023-07-02T04:08:06;99317.50;;;16.92;100.00
21504;BME280;10913;51.992;9.228;2023-07-02T04:10:31;99316.50;;;16.94;100.00
21504;BME280;10913;51.992;9.228;2023-07-02T04:12:57;99308.34;;;16.97;100.00
21504;BME280;10913;51.992;9.228;2023-07-02T04:15:22;99302.91;;;16.99;100.00
21504;BME280;10913;51.992;9.228;2023-07-02T04:17:49;99311.00;;;16.97;100.00
21504;BME280;10913;51.992;9.228;2023-07-02T04:20:14;99319.88;;;16.98;100.00
21504;BME280;10913;51.992;9.228;2023-07-02T04:22:40;99314.38;;;17.01;100.00
21504;BME280;10913;51.992;9.228;2023-07-02T04:25:06;99323.25;;;17.01;100.00
21504;BME280;10913;51.992;9.228;2023-07-02T04:27:31;99327.72;;;17.01;100.00
21504;BME280;10913;51.992;9.228;2023-07-02T04:29:57;99328.50;;;17.03;100.00
21504;BME280;10913;51.992;9.228;2023-07-02T04:32:22;99321.44;;;17.02;100.00
21504;BME280;10913;51.992;9.228;2023-07-02T04:34:47;99320.50;;;17.03;100.00
21504;BME280;10913;51.992;9.228;2023-07-02T04:37:13;99324.09;;;17.02;100.00
21504;BME280;10913;51.992;9.228;2023-07-02T04:39:40;99322.31;;;17.02;100.00
21504;BME280;10913;51.992;9.228;2023-07-02T04:42:06;99317.91;;;17.01;100.00
21504;BME280;10913;51.992;9.228;2023-07-02T04:44:31;99326.69;;;17.03;100.00
21504;BME280;10913;51.992;9.228;2023-07-02T04:47:01;99330.31;;;17.02;100.00
21504;BME280;10913;51.992;9.228;2023-07-02T04:49:27;99327.72;;;17.01;100.00
21504;BME280;10913;51.992;9.228;2023-07-02T04:51:53;99334.00;;;17.00;100.00
21504;BME280;10913;51.992;9.228;2023-07-02T04:54:22;99343.03;;;16.97;100.00
21504;BME280;10913;51.992;9.228;2023-07-02T04:56:48;99340.44;;;16.96;100.00
21504;BME280;10913;51.992;9.228;2023-07-02T04:59:14;99350.16;;;16.97;100.00
21504;BME280;10913;51.992;9.228;2023-07-02T05:01:39;99362.56;;;16.98;100.00
21504;BME280;10913;51.992;9.228;2023-07-02T05:04:05;99366.94;;;16.99;100.00
21504;BME280;10913;51.992;9.228;2023-07-02T05:06:31;99372.22;;;17.00;100.00
21504;BME280;10913;51.992;9.228;2023-07-02T05:08:56;99368.69;;;17.00;100.00
21504;BME280;10913;51.992;9.228;2023-07-02T05:11:21;99372.47;;;16.96;100.00
21504;BME280;10913;51.992;9.228;2023-07-02T05:13:47;99372.59;;;16.93;100.00
21504;BME280;10913;51.992;9.228;2023-07-02T05:16:12;99377.19;;;16.89;100.00
21504;BME280;10913;51.992;9.228;2023-07-02T05:18:38;99379.88;;;16.89;100.00
21504;BME280;10913;51.992;9.228;2023-07-02T05:21:04;99381.69;;;16.88;100.00
21504;BME280;10913;51.992;9.228;2023-07-02T05:23:29;99384.34;;;16.88;100.00
21504;BME280;10913;51.992;9.228;2023-07-02T05:25:54;99378.06;;;16.90;100.00
21504;BME280;10913;51.992;9.228;2023-07-02T05:28:20;99385.13;;;16.91;100.00
21504;BME280;10913;51.992;9.228;2023-07-02T05:30:45;99389.47;;;16.93;100.00
21504;BME280;10913;51.992;9.228;2023-07-02T05:33:10;99397.25;;;16.98;100.00
21504;BME280;10913;51.992;9.228;2023-07-02T05:35:36;99394.41;;;17.01;100.00
21504;BME280;10913;51.992;9.228;2023-07-02T05:38:01;99394.28;;;17.04;100.00
21504;BME280;10913;51.992;9.228;2023-07-02T05:40:26;99392.34;;;17.07;100.00
21504;BME280;10913;51.992;9.228;2023-07-02T05:42:52;99399.28;;;17.11;100.00
21504;BME280;10913;51.992;9.228;2023-07-02T05:45:17;99406.88;;;17.19;100.00
21504;BME280;10913;51.992;9.228;2023-07-02T05:47:42;99401.41;;;17.22;100.00
21504;BME280;10913;51.992;9.228;2023-07-02T05:50:08;99404.44;;;17.33;100.00
21504;BME280;10913;51.992;9.228;2023-07-02T05:52:33;99399.28;;;17.47;100.00
21504;BME280;10913;51.992;9.228;2023-07-02T05:54:59;99397.72;;;17.61;100.00
21504;BME280;10913;51.992;9.228;2023-07-02T05:57:24;99391.47;;;17.79;100.00
21504;BME280;10913;51.992;9.228;2023-07-02T05:59:50;99403.31;;;17.92;100.00
21504;BME280;10913;51.992;9.228;2023-07-02T06:02:15;99410.75;;;18.03;100.00
21504;BME280;10913;51.992;9.228;2023-07-02T06:04:40;99405.19;;;18.07;100.00
21504;BME280;10913;51.992;9.228;2023-07-02T06:07:06;99418.38;;;18.10;100.00
21504;BME280;10913;51.992;9.228;2023-07-02T06:09:31;99433.41;;;18.13;100.00
21504;BME280;10913;51.992;9.228;2023-07-02T06:11:57;99418.38;;;18.10;100.00
21504;BME280;10913;51.992;9.228;2023-07-02T06:14:23;99433.00;;;18.03;99.65
21504;BME280;10913;51.992;9.228;2023-07-02T06:16:51;99435.59;;;18.05;100.00
21504;BME280;10913;51.992;9.228;2023-07-02T06:19:17;99426.56;;;18.07;100.00
21504;BME280;10913;51.992;9.228;2023-07-02T06:21:43;99430.97;;;18.08;99.54
21504;BME280;10913;51.992;9.228;2023-07-02T06:24:08;99430.03;;;18.09;97.59
21504;BME280;10913;51.992;9.228;2023-07-02T06:26:33;99428.28;;;18.08;95.53
21504;BME280;10913;51.992;9.228;2023-07-02T06:28:59;99438.59;;;18.16;97.11
21504;BME280;10913;51.992;9.228;2023-07-02T06:31:24;99440.06;;;18.21;96.67
21504;BME280;10913;51.992;9.228;2023-07-02T06:33:50;99444.88;;;18.32;96.64
21504;BME280;10913;51.992;9.228;2023-07-02T06:36:15;99442.91;;;18.36;95.15
21504;BME280;10913;51.992;9.228;2023-07-02T06:38:41;99445.25;;;18.42;96.44
21504;BME280;10913;51.992;9.228;2023-07-02T06:41:06;99449.34;;;18.49;95.88
21504;BME280;10913;51.992;9.228;2023-07-02T06:43:31;99445.97;;;18.45;94.10
21504;BME280;10913;51.992;9.228;2023-07-02T06:45:57;99457.38;;;18.49;94.36
21504;BME280;10913;51.992;9.228;2023-07-02T06:48:22;99454.16;;;18.59;93.72
21504;BME280;10913;51.992;9.228;2023-07-02T06:50:47;99452.97;;;18.65;94.03
21504;BME280;10913;51.992;9.228;2023-07-02T06:53:13;99458.16;;;18.68;93.12
21504;BME280;10913;51.992;9.228;2023-07-02T06:55:39;99448.94;;;18.74;92.03
21504;BME280;10913;51.992;9.228;2023-07-02T06:58:05;99462.84;;;18.80;91.99
21504;BME280;10913;51.992;9.228;2023-07-02T07:00:32;99461.72;;;18.84;88.24
21504;BME280;10913;51.992;9.228;2023-07-02T07:02:58;99461.16;;;18.95;90.12
21504;BME280;10913;51.992;9.228;2023-07-02T07:05:23;99464.94;;;18.91;88.88
21504;BME280;10913;51.992;9.228;2023-07-02T07:07:48;99459.34;;;18.96;87.13
21504;BME280;10913;51.992;9.228;2023-07-02T07:10:14;99472.53;;;18.99;86.08
21504;BME280;10913;51.992;9.228;2023-07-02T07:12:39;99476.00;;;19.01;85.90
21504;BME280;10913;51.992;9.228;2023-07-02T07:15:05;99472.75;;;18.96;85.86
21504;BME280;10913;51.992;9.228;2023-07-02T07:17:30;99469.44;;;18.90;85.38
21504;BME280;10913;51.992;9.228;2023-07-02T07:19:55;99474.59;;;18.78;82.36
21504;BME280;10913;51.992;9.228;2023-07-02T07:22:21;99473.47;;;18.82;84.02
21504;BME280;10913;51.992;9.228;2023-07-02T07:24:46;99474.97;;;18.87;83.89
21504;BME280;10913;51.992;9.228;2023-07-02T07:27:11;99472.38;;;19.02;84.90
21504;BME280;10913;51.992;9.228;2023-07-02T07:29:37;99466.38;;;19.14;83.06
21504;BME280;10913;51.992;9.228;2023-07-02T07:32:02;99477.44;;;19.23;83.92
21504;BME280;10913;51.992;9.228;2023-07-02T07:34:28;99476.22;;;19.13;83.11
21504;BME280;10913;51.992;9.228;2023-07-02T07:36:53;99482.44;;;19.14;82.84
21504;BME280;10913;51.992;9.228;2023-07-02T07:39:18;99479.09;;;19.26;82.60
21504;BME280;10913;51.992;9.228;2023-07-02T07:41:47;99478.59;;;19.35;83.99
21504;BME280;10913;51.992;9.228;2023-07-02T07:44:15;99480.72;;;19.44;83.50
21504;BME280;10913;51.992;9.228;2023-07-02T07:46:41;99478.84;;;19.46;78.74
21504;BME280;10913;51.992;9.228;2023-07-02T07:49:06;99476.16;;;19.46;80.59
21504;BME280;10913;51.992;9.228;2023-07-02T07:51:32;99494.44;;;19.55;80.49
21504;BME280;10913;51.992;9.228;2023-07-02T07:53:57;99480.19;;;19.55;79.49
21504;BME280;10913;51.992;9.228;2023-07-02T07:56:22;99473.94;;;19.54;77.49
21504;BME280;10913;51.992;9.228;2023-07-02T07:58:48;99481.53;;;19.62;76.69
21504;BME280;10913;51.992;9.228;2023-07-02T08:01:13;99480.78;;;19.76;77.35
21504;BME280;10913;51.992;9.228;2023-07-02T08:03:38;99484.63;;;19.86;76.62
21504;BME280;10913;51.992;9.228;2023-07-02T08:06:04;99486.88;;;19.93;77.79
21504;BME280;10913;51.992;9.228;2023-07-02T08:08:29;99489.31;;;19.98;77.83
21504;BME280;10913;51.992;9.228;2023-07-02T08:10:55;99492.59;;;19.87;75.73
21504;BME280;10913;51.992;9.228;2023-07-02T08:13:20;99492.06;;;19.81;75.18
21504;BME280;10913;51.992;9.228;2023-07-02T08:15:45;99502.00;;;19.79;75.57
21504;BME280;10913;51.992;9.228;2023-07-02T08:18:11;99514.97;;;20.02;75.82
21504;BME280;10913;51.992;9.228;2023-07-02T08:20:38;99490.34;;;20.25;76.16
21504;BME280;10913;51.992;9.228;2023-07-02T08:23:04;99501.66;;;20.30;73.45
21504;BME280;10913;51.992;9.228;2023-07-02T08:25:29;99515.78;;;20.34;70.81
21504;BME280;10913;51.992;9.228;2023-07-02T08:27:55;99511.63;;;20.28;73.38
21504;BME280;10913;51.992;9.228;2023-07-02T08:30:21;99526.72;;;20.15;73.80
21504;BME280;10913;51.992;9.228;2023-07-02T08:32:46;99525.69;;;20.18;74.44
21504;BME280;10913;51.992;9.228;2023-07-02T08:35:12;99527.84;;;20.11;73.14
21504;BME280;10913;51.992;9.228;2023-07-02T08:37:37;99534.16;;;20.10;73.19
21504;BME280;10913;51.992;9.228;2023-07-02T08:40:03;99539.50;;;20.26;73.53
21504;BME280;10913;51.992;9.228;2023-07-02T08:42:31;99536.97;;;20.39;74.80
21504;BME280;10913;51.992;9.228;2023-07-02T08:44:59;99530.94;;;20.65;74.68
21504;BME280;10913;51.992;9.228;2023-07-02T08:47:25;99544.31;;;20.95;73.97
21504;BME280;10913;51.992;9.228;2023-07-02T08:49:50;99534.44;;;21.10;71.87
21504;BME280;10913;51.992;9.228;2023-07-02T08:52:16;99532.03;;;21.19;68.75
21504;BME280;10913;51.992;9.228;2023-07-02T08:54:41;99531.13;;;21.35;72.08
21504;BME280;10913;51.992;9.228;2023-07-02T08:57:09;99538.31;;;21.48;70.71
21504;BME280;10913;51.992;9.228;2023-07-02T08:59:36;99530.41;;;21.59;71.59
21504;BME280;10913;51.992;9.228;2023-07-02T09:02:01;99539.31;;;21.74;70.38
21504;BME280;10913;51.992;9.228;2023-07-02T09:04:26;99537.50;;;21.75;69.59
21504;BME280;10913;51.992;9.228;2023-07-02T09:07:07;99540.78;;;21.65;68.13
21504;BME280;10913;51.992;9.228;2023-07-02T09:09:33;99539.66;;;21.55;66.20
21504;BME280;10913;51.992;9.228;2023-07-02T09:12:09;99540.22;;;21.46;69.10
21504;BME280;10913;51.992;9.228;2023-07-02T09:14:34;99551.00;;;21.32;68.48
21504;BME280;10913;51.992;9.228;2023-07-02T09:17:08;99553.31;;;21.38;68.60
21504;BME280;10913;51.992;9.228;2023-07-02T09:19:36;99554.81;;;21.42;68.07
21504;BME280;10913;51.992;9.228;2023-07-02T09:22:12;99551.56;;;21.37;67.32
21504;BME280;10913;51.992;9.228;2023-07-02T09:24:40;99555.09;;;21.23;66.82
21504;BME280;10913;51.992;9.228;2023-07-02T09:27:06;99554.38;;;20.91;65.35
21504;BME280;10913;51.992;9.228;2023-07-02T09:29:32;99558.13;;;20.89;67.12
21504;BME280;10913;51.992;9.228;2023-07-02T09:32:04;99555.06;;;21.09;68.91
21504;BME280;10913;51.992;9.228;2023-07-02T09:34:34;99552.44;;;21.38;66.90
21504;BME280;10913;51.992;9.228;2023-07-02T09:37:01;99561.91;;;21.43;66.57
21504;BME280;10913;51.992;9.228;2023-07-02T09:39:32;99556.56;;;21.29;65.36
21504;BME280;10913;51.992;9.228;2023-07-02T09:42:02;99563.81;;;21.41;65.71
21504;BME280;10913;51.992;9.228;2023-07-02T09:44:31;99557.78;;;21.52;62.76
21504;BME280;10913;51.992;9.228;2023-07-02T09:47:01;99564.38;;;21.60;64.21
21504;BME280;10913;51.992;9.228;2023-07-02T09:49:31;99562.22;;;21.53;64.74
21504;BME280;10913;51.992;9.228;2023-07-02T09:51:59;99568.81;;;21.61;65.02
21504;BME280;10913;51.992;9.228;2023-07-02T09:54:25;99572.25;;;21.63;61.43
21504;BME280;10913;51.992;9.228;2023-07-02T09:56:51;99559.78;;;21.77;60.25
21504;BME280;10913;51.992;9.228;2023-07-02T09:59:16;99557.63;;;21.82;59.66
21504;BME280;10913;51.992;9.228;2023-07-02T10:01:42;99562.03;;;21.97;62.18
21504;BME280;10913;51.992;9.228;2023-07-02T10:04:12;99566.19;;;22.29;60.90
21504;BME280;10913;51.992;9.228;2023-07-02T10:06:48;99572.53;;;22.55;61.96
21504;BME280;10913;51.992;9.228;2023-07-02T10:09:15;99567.25;;;22.54;58.05
21504;BME280;10913;51.992;9.228;2023-07-02T10:11:41;99556.94;;;22.73;58.24
21504;BME280;10913;51.992;9.228;2023-07-02T10:14:06;99552.75;;;22.82;60.34
21504;BME280;10913;51.992;9.228;2023-07-02T10:16:31;99562.31;;;22.73;58.64
21504;BME280;10913;51.992;9.228;2023-07-02T10:21:35;99587.13;;;22.78;57.06
21504;BME280;10913;51.992;9.228;2023-07-02T10:24:13;99575.84;;;22.86;57.54
21504;BME280;10913;51.992;9.228;2023-07-02T10:26:54;99591.59;;;22.65;58.93
21504;BME280;10913;51.992;9.228;2023-07-02T10:29:23;99596.63;;;22.84;59.12
21504;BME280;10913;51.992;9.228;2023-07-02T10:31:50;99581.97;;;23.00;59.63
21504;BME280;10913;51.992;9.228;2023-07-02T10:34:16;99587.59;;;23.23;59.04
21504;BME280;10913;51.992;9.228;2023-07-02T10:36:41;99600.78;;;23.15;56.39
21504;BME280;10913;51.992;9.228;2023-07-02T10:39:07;99601.41;;;23.06;57.95
21504;BME280;10913;51.992;9.228;2023-07-02T10:41:34;99597.44;;;23.11;58.42
21504;BME280;10913;51.992;9.228;2023-07-02T10:44:09;99608.53;;;23.32;57.37
21504;BME280;10913;51.992;9.228;2023-07-02T10:46:43;99591.91;;;23.51;54.72
21504;BME280;10913;51.992;9.228;2023-07-02T10:49:08;99598.81;;;23.42;54.10
21504;BME280;10913;51.992;9.228;2023-07-02T10:51:34;99595.47;;;23.26;56.41
21504;BME280;10913;51.992;9.228;2023-07-02T10:54:01;99609.38;;;23.20;57.00
21504;BME280;10913;51.992;9.228;2023-07-02T10:56:27;99604.31;;;23.28;57.26
21504;BME280;10913;51.992;9.228;2023-07-02T10:58:54;99599.16;;;23.50;57.05
21504;BME280;10913;51.992;9.228;2023-07-02T11:01:30;99592.56;;;23.67;57.66
21504;BME280;10913;51.992;9.228;2023-07-02T11:04:05;99600.34;;;23.72;57.80
21504;BME280;10913;51.992;9.228;2023-07-02T11:06:31;99608.50;;;23.83;58.05
21504;BME280;10913;51.992;9.228;2023-07-02T11:08:59;99602.25;;;23.95;57.65
21504;BME280;10913;51.992;9.228;2023-07-02T11:11:24;99596.63;;;23.98;55.83
21504;BME280;10913;51.992;9.228;2023-07-02T11:13:51;99589.78;;;24.05;55.51
21504;BME280;10913;51.992;9.228;2023-07-02T11:18:48;99601.97;;;23.74;57.46
21504;BME280;10913;51.992;9.228;2023-07-02T11:21:13;99608.31;;;23.73;57.63
21504;BME280;10913;51.992;9.228;2023-07-02T11:23:38;99610.19;;;24.09;57.29
21504;BME280;10913;51.992;9.228;2023-07-02T11:26:04;99607.13;;;24.26;55.85
21504;BME280;10913;51.992;9.228;2023-07-02T11:28:30;99616.72;;;24.30;56.85
21504;BME280;10913;51.992;9.228;2023-07-02T11:30:58;99604.72;;;24.34;56.87
21504;BME280;10913;51.992;9.228;2023-07-02T11:33:37;99608.03;;;24.38;54.56
21504;BME280;10913;51.992;9.228;2023-07-02T11:36:03;99604.31;;;24.52;56.50
21504;BME280;10913;51.992;9.228;2023-07-02T11:38:29;99604.34;;;24.63;56.35
21504;BME280;10913;51.992;9.228;2023-07-02T11:40:54;99604.44;;;24.50;55.62
21504;BME280;10913;51.992;9.228;2023-07-02T11:43:20;99603.34;;;24.53;56.16
21504;BME280;10913;51.992;9.228;2023-07-02T11:45:45;99605.50;;;24.71;57.33
21504;BME280;10913;51.992;9.228;2023-07-02T11:48:10;99606.03;;;24.77;55.45
21504;BME280;10913;51.992;9.228;2023-07-02T11:50:36;99598.06;;;24.86;54.76
21504;BME280;10913;51.992;9.228;2023-07-02T11:53:01;99597.94;;;24.88;55.75
21504;BME280;10913;51.992;9.228;2023-07-02T11:55:28;99598.19;;;24.85;55.54
21504;BME280;10913;51.992;9.228;2023-07-02T11:57:53;99606.50;;;24.70;55.56
21504;BME280;10913;51.992;9.228;2023-07-02T12:00:19;99596.22;;;24.52;56.13
21504;BME280;10913;51.992;9.228;2023-07-02T12:02:44;99603.00;;;24.33;56.15
21504;BME280;10913;51.992;9.228;2023-07-02T12:05:09;99597.59;;;24.33;56.37
21504;BME280;10913;51.992;9.228;2023-07-02T12:07:35;99593.19;;;24.32;56.08
21504;BME280;10913;51.992;9.228;2023-07-02T12:10:00;99609.28;;;24.34;54.67
21504;BME280;10913;51.992;9.228;2023-07-02T12:12:26;99611.59;;;24.38;53.96
21504;BME280;10913;51.992;9.228;2023-07-02T12:14:51;99610.28;;;24.44;55.32
21504;BME280;10913;51.992;9.228;2023-07-02T12:17:16;99595.69;;;24.47;55.79
21504;BME280;10913;51.992;9.228;2023-07-02T12:19:42;99600.13;;;24.48;56.02
21504;BME280;10913;51.992;9.228;2023-07-02T12:22:07;99599.38;;;24.46;55.07
21504;BME280;10913;51.992;9.228;2023-07-02T12:24:33;99608.28;;;24.35;56.60
21504;BME280;10913;51.992;9.228;2023-07-02T12:26:58;99609.81;;;24.26;56.92
21504;BME280;10913;51.992;9.228;2023-07-02T12:29:24;99616.59;;;24.19;57.54
21504;BME280;10913;51.992;9.228;2023-07-02T12:31:49;99615.03;;;24.04;56.97
21504;BME280;10913;51.992;9.228;2023-07-02T12:34:15;99620.16;;;23.96;58.16
21504;BME280;10913;51.992;9.228;2023-07-02T12:36:40;99618.22;;;23.98;57.56
21504;BME280;10913;51.992;9.228;2023-07-02T12:39:06;99624.25;;;23.89;57.74
21504;BME280;10913;51.992;9.228;2023-07-02T12:41:33;99614.13;;;23.92;56.88
21504;BME280;10913;51.992;9.228;2023-07-02T12:43:58;99619.91;;;23.99;57.49
21504;BME280;10913;51.992;9.228;2023-07-02T12:46:24;99624.47;;;23.86;55.53
21504;BME280;10913;51.992;9.228;2023-07-02T12:48:49;99620.59;;;23.90;58.02
21504;BME280;10913;51.992;9.228;2023-07-02T12:51:15;99626.19;;;23.87;56.14
21504;BME280;10913;51.992;9.228;2023-07-02T12:53:40;99619.84;;;23.88;57.88
21504;BME280;10913;51.992;9.228;2023-07-02T12:56:05;99630.09;;;23.83;55.36
21504;BME280;10913;51.992;9.228;2023-07-02T12:58:31;99635.38;;;23.84;56.59